Terminal Aerodrome Forecast
Issued by NWS

Home | Current Version | Previous Version | Text Only | Print | Product List | Glossary On
Versions: 1 2 3 4 5 6 7 8 9 10 11 12 13 14 15 16 17 18
000
FTUS43 KDLH 230532
TAFBRD
TAF
KBRD 230532Z 2306/2406 31004KT P6SM SKC
     FM232000 34005KT P6SM FEW050 SCT200
     FM240200 00000KT P6SM VCSH SCT040 BKN090=

USA.gov is the U.S. government's official web portal to all federal, state and local government web resources and services.